Keumyang Family — DSNO8 — position and weather

sailwx.info

Track history (hours):
 
Tides and Currents Weather Stations Pressure Air Temp Water Temp Dewpoint Dewpoint Depression Visibility Wind Speed Wind Dir Waves Ship Positions

Keumyang Family

Last reported at 2015-Jul-02 09:13 UTC. Time now 2015-Jul-04 19:05 UTC.
Position N 34°38' E 134°59'.

Length 95 m; draft 4 m.

Type: Pleasure craft. MMSI: 441416000.

Date/timePositionNaut miles runAvg speedWind from/ knotsBaromVisibWave heightAir tempDewpointWater temp
2015-Jul-02 09:13N 34°38' E 134°59'812.1
2015-Jul-02 08:33N 34°36' E 135°08'1211.7
2015-Jul-02 07:33N 34°38' E 135°22'3 0.4
2015-Jul-01 22:31N 34°39' E 135°26'3 3.0
2015-Jul-01 21:23N 34°37' E 135°23'0 0.0
2015-Jul-01 20:29N 34°37' E 135°23'0 0.0
2015-Jul-01 19:23N 34°37' E 135°23'0 0.1
2015-Jul-01 18:29N 34°37' E 135°22'0 0.0
2015-Jul-01 17:29N 34°37' E 135°22'0 0.0
2015-Jul-01 16:29N 34°37' E 135°23'0 0.0
2015-Jul-01 15:05N 34°37' E 135°23'0 0.0
2015-Jul-01 14:29N 34°37' E 135°23'0 0.1
2015-Jul-01 13:29N 34°37' E 135°22'0 0.0
2015-Jul-01 11:23N 34°37' E 135°22'3 3.7
2015-Jul-01 10:33N 34°36' E 135°19'1211.9
2015-Jul-01 09:33N 34°35' E 135°05'8 8.0
2015-Jul-01 08:32N 34°35' E 134°55'  
Track history (hours):
 
Tides and Currents Weather Stations Pressure Air Temp Water Temp Dewpoint Dewpoint Depression Visibility Wind Speed Wind Dir Waves Ship Positions

Keumyang Family

Last reported at 2015-Jul-02 09:13 UTC. Time now 2015-Jul-04 19:05 UTC.
Position N 34°38' E 134°59'.

Length 95 m; draft 4 m.

Type: Pleasure craft. MMSI: 441416000.

Date/timePositionNaut miles runAvg speedWind from/ knotsBaromVisibWave heightAir tempDewpointWater temp
2015-Jul-02 09:13N 34°38' E 134°59'812.1
2015-Jul-02 08:33N 34°36' E 135°08'1211.7
2015-Jul-02 07:33N 34°38' E 135°22'3 0.4
2015-Jul-01 22:31N 34°39' E 135°26'3 3.0
2015-Jul-01 21:23N 34°37' E 135°23'0 0.0
2015-Jul-01 20:29N 34°37' E 135°23'0 0.0
2015-Jul-01 19:23N 34°37' E 135°23'0 0.1
2015-Jul-01 18:29N 34°37' E 135°22'0 0.0
2015-Jul-01 17:29N 34°37' E 135°22'0 0.0
2015-Jul-01 16:29N 34°37' E 135°23'0 0.0
2015-Jul-01 15:05N 34°37' E 135°23'0 0.0
2015-Jul-01 14:29N 34°37' E 135°23'0 0.1
2015-Jul-01 13:29N 34°37' E 135°22'0 0.0
2015-Jul-01 11:23N 34°37' E 135°22'3 3.7
2015-Jul-01 10:33N 34°36' E 135°19'1211.9
2015-Jul-01 09:33N 34°35' E 135°05'8 8.0
2015-Jul-01 08:32N 34°35' E 134°55'  

Dump ship's entire track history